createdAt,value
2022-12-13T00:00:31.996Z,37.85
2022-12-13T00:01:31.971Z,37.80
2022-12-13T00:02:32.045Z,37.75
2022-12-13T00:03:31.975Z,37.80
2022-12-13T00:04:32.067Z,37.75
2022-12-13T00:05:31.921Z,37.80
2022-12-13T00:06:31.918Z,37.75
2022-12-13T00:07:31.897Z,37.85
2022-12-13T00:08:31.921Z,37.85
2022-12-13T00:09:31.879Z,37.75
2022-12-13T00:10:31.868Z,37.69
2022-12-13T00:11:31.844Z,37.75
2022-12-13T00:12:31.841Z,37.85
2022-12-13T00:13:31.821Z,37.91
2022-12-13T00:14:31.806Z,37.80
2022-12-13T00:15:31.800Z,37.75
2022-12-13T00:16:31.886Z,37.75
2022-12-13T00:17:31.770Z,37.75
2022-12-13T00:18:31.774Z,37.75
2022-12-13T00:19:31.750Z,37.85
2022-12-13T00:20:31.729Z,37.69
2022-12-13T00:21:31.721Z,37.75
2022-12-13T00:22:31.704Z,37.80
2022-12-13T00:23:31.693Z,37.75
2022-12-13T00:24:31.685Z,37.75
2022-12-13T00:25:31.666Z,37.80
2022-12-13T00:26:31.659Z,37.75
2022-12-13T00:27:31.649Z,37.75
2022-12-13T00:28:31.634Z,37.75
2022-12-13T00:29:31.621Z,37.85
2022-12-13T00:30:31.731Z,37.80
2022-12-13T00:32:01.792Z,37.80
2022-12-13T00:32:32.616Z,37.75
2022-12-13T00:33:31.569Z,37.69
2022-12-13T00:34:31.582Z,37.85
2022-12-13T00:35:31.539Z,37.80
2022-12-13T00:36:31.536Z,37.80
2022-12-13T00:37:31.519Z,37.80
2022-12-13T00:38:31.504Z,37.75
2022-12-13T00:39:31.495Z,37.64
2022-12-13T00:40:31.477Z,37.85
2022-12-13T00:41:31.477Z,37.80
2022-12-13T00:42:31.455Z,37.85
2022-12-13T00:43:31.442Z,37.69
2022-12-13T00:44:31.435Z,37.69
2022-12-13T00:45:31.412Z,37.69
2022-12-13T00:46:31.554Z,37.80
2022-12-13T00:47:31.383Z,37.75
2022-12-13T00:48:31.378Z,37.75
2022-12-13T00:49:31.363Z,37.85
2022-12-13T00:50:31.371Z,37.85
2022-12-13T00:51:31.337Z,37.75
2022-12-13T00:52:31.325Z,37.75
2022-12-13T00:53:31.313Z,37.85
2022-12-13T00:54:31.303Z,37.75
2022-12-13T00:55:31.280Z,37.75
2022-12-13T00:56:31.269Z,37.96
2022-12-13T00:57:31.261Z,37.80
2022-12-13T00:58:31.245Z,37.80
2022-12-13T00:59:31.238Z,37.69
2022-12-13T01:00:31.217Z,37.85
2022-12-13T01:01:31.265Z,37.75
2022-12-13T01:02:31.192Z,37.75
2022-12-13T01:03:31.216Z,37.80
2022-12-13T01:04:31.164Z,37.80
2022-12-13T01:06:04.061Z,37.69
2022-12-13T01:06:32.204Z,37.75
2022-12-13T01:07:31.126Z,37.85
2022-12-13T01:08:31.140Z,37.75
2022-12-13T01:09:31.161Z,37.85
2022-12-13T01:10:31.094Z,37.75
2022-12-13T01:11:31.087Z,37.69
2022-12-13T01:12:31.067Z,37.75
2022-12-13T01:13:31.049Z,37.85
2022-12-13T01:14:31.043Z,37.69
2022-12-13T01:15:31.024Z,37.69
2022-12-13T01:16:31.053Z,37.80
2022-12-13T01:17:30.998Z,37.75
2022-12-13T01:18:30.987Z,37.75
2022-12-13T01:19:30.971Z,37.75
2022-12-13T01:20:30.968Z,37.75
2022-12-13T01:21:30.945Z,37.75
2022-12-13T01:22:30.966Z,37.69
2022-12-13T01:23:30.930Z,37.75
2022-12-13T01:24:30.907Z,37.80
2022-12-13T01:25:30.895Z,37.80
2022-12-13T01:26:30.882Z,37.91
2022-12-13T01:27:30.875Z,37.75
2022-12-13T01:28:30.859Z,37.75
2022-12-13T01:29:30.854Z,37.80
2022-12-13T01:30:30.900Z,37.80
2022-12-13T01:31:30.824Z,37.85
2022-12-13T01:32:30.806Z,37.75
2022-12-13T01:33:30.799Z,37.69
2022-12-13T01:34:30.781Z,36.56
2022-12-13T01:35:30.775Z,37.69
2022-12-13T01:36:30.765Z,37.75
2022-12-13T01:37:30.753Z,37.80
2022-12-13T01:38:31.935Z,37.75
2022-12-13T01:39:31.744Z,37.80
2022-12-13T01:40:31.739Z,37.80
2022-12-13T01:41:31.720Z,37.69
2022-12-13T01:42:30.677Z,37.85
2022-12-13T01:43:30.667Z,37.85
2022-12-13T01:44:30.657Z,37.85
2022-12-13T01:45:30.648Z,37.75
2022-12-13T01:46:30.702Z,37.80
2022-12-13T01:47:30.618Z,37.69
2022-12-13T01:48:30.610Z,37.69
2022-12-13T01:49:30.597Z,37.85
2022-12-13T01:50:30.585Z,37.75
2022-12-13T01:51:30.568Z,37.75
2022-12-13T01:52:30.561Z,37.75
2022-12-13T01:53:30.538Z,37.80
2022-12-13T01:54:33.668Z,37.85
2022-12-13T01:55:30.514Z,37.69
2022-12-13T01:56:30.511Z,37.75
2022-12-13T01:57:30.492Z,37.75
2022-12-13T01:58:30.481Z,37.75
2022-12-13T01:59:30.461Z,37.80
2022-12-13T02:00:30.455Z,37.91
2022-12-13T02:01:30.546Z,37.91
2022-12-13T02:02:30.423Z,37.80
2022-12-13T02:03:30.411Z,37.85
2022-12-13T02:04:30.406Z,37.75
2022-12-13T02:05:30.442Z,37.85
2022-12-13T02:06:30.375Z,37.80
2022-12-13T02:07:30.369Z,37.69
2022-12-13T02:08:30.423Z,37.75
2022-12-13T02:09:30.339Z,37.75
2022-12-13T02:10:30.352Z,37.69
2022-12-13T02:11:30.316Z,37.75
2022-12-13T02:12:30.678Z,37.80
2022-12-13T02:13:30.289Z,37.91
2022-12-13T02:14:30.268Z,37.80
2022-12-13T02:15:30.265Z,37.91
2022-12-13T02:16:30.275Z,37.75
2022-12-13T02:17:30.239Z,37.75
2022-12-13T02:18:30.220Z,37.80
2022-12-13T02:19:30.207Z,37.75
2022-12-13T02:20:30.194Z,37.85
2022-12-13T02:21:30.181Z,37.85
2022-12-13T02:22:30.168Z,37.75
2022-12-13T02:23:30.153Z,37.91
2022-12-13T02:24:30.148Z,37.85
2022-12-13T02:25:30.131Z,37.91
2022-12-13T02:26:30.230Z,37.85
2022-12-13T02:27:30.941Z,37.80
2022-12-13T02:28:31.340Z,37.85
2022-12-13T02:29:31.316Z,37.75
2022-12-13T02:30:30.065Z,37.69
2022-12-13T02:31:30.178Z,37.91
2022-12-13T02:32:30.046Z,37.75
2022-12-13T02:33:30.027Z,37.69
2022-12-13T02:34:30.015Z,37.80
2022-12-13T02:35:30.011Z,37.85
2022-12-13T02:36:36.632Z,37.85
2022-12-13T02:37:31.019Z,37.75
2022-12-13T02:38:29.966Z,37.85
2022-12-13T02:39:31.025Z,37.85
2022-12-13T02:40:29.944Z,37.80
2022-12-13T02:41:29.929Z,37.75
2022-12-13T02:42:29.945Z,37.85
2022-12-13T02:43:33.528Z,37.75
2022-12-13T02:44:29.885Z,37.75
2022-12-13T02:45:29.885Z,37.96
2022-12-13T02:46:29.947Z,37.69
2022-12-13T02:47:29.853Z,37.85
2022-12-13T02:48:29.838Z,37.75
2022-12-13T02:49:29.839Z,37.85
2022-12-13T02:50:29.810Z,37.75
2022-12-13T02:51:29.806Z,37.91
2022-12-13T02:52:29.793Z,37.80
2022-12-13T02:53:29.776Z,37.75
2022-12-13T02:54:29.757Z,37.75
2022-12-13T02:55:29.754Z,37.69
2022-12-13T02:56:29.731Z,37.75
2022-12-13T02:57:29.717Z,37.85
2022-12-13T02:58:29.735Z,37.75
2022-12-13T02:59:29.702Z,37.91
2022-12-13T03:00:29.682Z,37.85
2022-12-13T03:01:30.050Z,37.75
2022-12-13T03:02:31.525Z,37.75
2022-12-13T03:03:29.773Z,37.75
2022-12-13T03:04:29.632Z,37.85
2022-12-13T03:05:29.619Z,37.85
2022-12-13T03:06:34.352Z,37.80
2022-12-13T03:07:29.592Z,37.75
2022-12-13T03:08:29.634Z,37.69
2022-12-13T03:09:29.576Z,37.85
2022-12-13T03:10:29.559Z,37.85
2022-12-13T03:11:29.541Z,37.75
2022-12-13T03:12:29.523Z,37.85
2022-12-13T03:13:29.512Z,37.80
2022-12-13T03:14:31.827Z,37.80
2022-12-13T03:15:29.489Z,37.80
2022-12-13T03:16:29.557Z,37.75
2022-12-13T03:17:29.470Z,37.75
2022-12-13T03:18:29.447Z,36.61
2022-12-13T03:19:29.454Z,37.75
2022-12-13T03:20:29.428Z,37.80
2022-12-13T03:21:29.419Z,37.75
2022-12-13T03:22:29.398Z,37.85
2022-12-13T03:23:29.395Z,37.80
2022-12-13T03:24:29.381Z,37.91
2022-12-13T03:25:31.591Z,37.85
2022-12-13T03:26:29.354Z,37.80
2022-12-13T03:27:29.335Z,36.67
2022-12-13T03:28:29.321Z,37.85
2022-12-13T03:29:29.315Z,37.80
2022-12-13T03:30:29.318Z,36.61
2022-12-13T03:31:29.334Z,37.69
2022-12-13T03:32:29.275Z,37.75
2022-12-13T03:33:29.263Z,37.75
2022-12-13T03:34:44.577Z,37.69
2022-12-13T03:35:34.747Z,37.96
2022-12-13T03:36:30.258Z,37.85
2022-12-13T03:37:29.206Z,37.75
2022-12-13T03:38:29.203Z,37.85
2022-12-13T03:39:29.188Z,37.85
2022-12-13T03:40:29.168Z,37.85
2022-12-13T03:41:29.156Z,37.85
2022-12-13T03:42:29.147Z,37.80
2022-12-13T03:43:29.128Z,37.91
2022-12-13T03:44:31.443Z,37.80
2022-12-13T03:45:29.108Z,37.80
2022-12-13T03:46:29.160Z,37.91
2022-12-13T03:47:29.077Z,37.75
2022-12-13T03:48:29.070Z,37.80
2022-12-13T03:49:35.789Z,37.69
2022-12-13T03:50:30.068Z,37.80
2022-12-13T03:51:29.030Z,37.91
2022-12-13T03:52:29.012Z,37.75
2022-12-13T03:53:32.427Z,36.56
2022-12-13T03:54:29.002Z,37.69
2022-12-13T03:55:28.979Z,37.75
2022-12-13T03:56:28.962Z,37.85
2022-12-13T03:57:28.948Z,37.75
2022-12-13T03:58:35.321Z,37.85
2022-12-13T03:59:29.972Z,37.69
2022-12-13T04:00:28.907Z,37.85
2022-12-13T04:01:28.923Z,37.75
2022-12-13T04:02:30.486Z,37.80
2022-12-13T04:03:28.917Z,37.75
2022-12-13T04:04:28.865Z,37.69
2022-12-13T04:05:28.846Z,37.80
2022-12-13T04:06:33.027Z,37.75
2022-12-13T04:07:34.171Z,37.85
2022-12-13T04:08:28.878Z,37.80
2022-12-13T04:09:28.793Z,37.85
2022-12-13T04:10:28.788Z,36.72
2022-12-13T04:11:28.773Z,36.61
2022-12-13T04:12:28.762Z,36.61
2022-12-13T04:13:28.742Z,37.69
2022-12-13T04:14:28.730Z,37.85
2022-12-13T04:15:28.718Z,36.56
2022-12-13T04:16:28.733Z,37.85
2022-12-13T04:17:28.695Z,36.56
2022-12-13T04:18:28.707Z,37.80
2022-12-13T04:19:28.661Z,36.61
2022-12-13T04:20:28.661Z,37.96
2022-12-13T04:21:28.649Z,37.69
2022-12-13T04:22:28.634Z,37.85
2022-12-13T04:23:28.624Z,37.69
2022-12-13T04:24:31.544Z,36.61
2022-12-13T04:25:28.587Z,37.75
2022-12-13T04:26:28.592Z,37.69
2022-12-13T04:27:28.562Z,37.80
2022-12-13T04:28:28.556Z,36.56
2022-12-13T04:29:33.729Z,37.80
2022-12-13T04:30:29.568Z,36.56
2022-12-13T04:31:28.522Z,37.75
2022-12-13T04:32:28.504Z,37.91
2022-12-13T04:33:28.485Z,37.69
2022-12-13T04:34:33.296Z,37.85
2022-12-13T04:35:29.490Z,37.85
2022-12-13T04:36:31.895Z,37.75
2022-12-13T04:37:28.441Z,36.56
2022-12-13T04:38:28.417Z,37.85
2022-12-13T04:39:28.408Z,37.85
2022-12-13T04:40:29.428Z,37.75
2022-12-13T04:41:33.978Z,37.75
2022-12-13T04:42:29.400Z,36.56
2022-12-13T04:43:28.363Z,36.56
2022-12-13T04:44:32.594Z,37.91
2022-12-13T04:45:29.409Z,36.61
2022-12-13T04:46:28.321Z,37.75
2022-12-13T04:47:28.311Z,37.69
2022-12-13T04:48:31.353Z,37.75
2022-12-13T04:49:28.278Z,37.91
2022-12-13T04:50:28.287Z,36.61
2022-12-13T04:51:28.258Z,37.69
2022-12-13T04:52:28.253Z,37.85
2022-12-13T04:53:28.233Z,37.69
2022-12-13T04:54:28.220Z,37.91
2022-12-13T04:55:29.253Z,37.85
2022-12-13T04:56:28.194Z,36.67
2022-12-13T04:57:28.174Z,36.56
2022-12-13T04:58:28.170Z,37.85
2022-12-13T04:59:28.148Z,37.85
2022-12-13T05:00:28.139Z,37.75
2022-12-13T05:01:28.194Z,37.91
2022-12-13T05:02:28.181Z,37.80
2022-12-13T05:03:28.099Z,36.56
2022-12-13T05:04:32.726Z,36.61
2022-12-13T05:05:28.078Z,37.80
2022-12-13T05:06:28.097Z,37.80
2022-12-13T05:07:28.052Z,37.75
2022-12-13T05:08:28.093Z,37.69
2022-12-13T05:09:28.021Z,37.91
2022-12-13T05:10:33.892Z,37.80
2022-12-13T05:11:35.977Z,37.75
2022-12-13T05:12:29.021Z,37.69
2022-12-13T05:13:27.976Z,37.85
2022-12-13T05:14:27.963Z,37.64
2022-12-13T05:15:27.944Z,36.50
2022-12-13T05:16:27.980Z,37.85
2022-12-13T05:17:27.920Z,36.72
2022-12-13T05:18:27.910Z,37.69
2022-12-13T05:19:30.607Z,37.80
2022-12-13T05:20:27.878Z,36.61
2022-12-13T05:21:27.875Z,36.56
2022-12-13T05:22:27.879Z,36.56
2022-12-13T05:23:27.852Z,37.80
2022-12-13T05:24:27.848Z,36.56
2022-12-13T05:25:27.820Z,36.50
2022-12-13T05:26:27.803Z,36.61
2022-12-13T05:27:27.795Z,37.69
2022-12-13T05:28:28.935Z,36.67
2022-12-13T05:29:27.788Z,37.85
2022-12-13T05:30:27.760Z,36.61
2022-12-13T05:31:27.855Z,37.69
2022-12-13T05:32:27.724Z,36.61
2022-12-13T05:33:27.734Z,36.50
2022-12-13T05:34:27.706Z,37.80
2022-12-13T05:35:27.692Z,36.56
2022-12-13T05:36:27.672Z,37.75
2022-12-13T05:37:27.661Z,36.61
2022-12-13T05:38:27.679Z,37.75
2022-12-13T05:39:29.881Z,37.85
2022-12-13T05:40:27.631Z,36.72
2022-12-13T05:41:27.608Z,37.75
2022-12-13T05:42:27.610Z,36.50
2022-12-13T05:43:41.963Z,37.75
2022-12-13T05:44:28.615Z,36.67
2022-12-13T05:45:27.562Z,36.50
2022-12-13T05:46:27.543Z,36.72
2022-12-13T05:47:27.543Z,37.64
2022-12-13T05:48:27.533Z,36.67
2022-12-13T05:49:27.515Z,36.61
2022-12-13T05:50:27.520Z,36.61
2022-12-13T05:51:27.479Z,37.80
2022-12-13T05:52:30.573Z,37.85
2022-12-13T05:53:30.500Z,37.85
2022-12-13T05:54:27.466Z,37.75
2022-12-13T05:55:27.444Z,37.75
2022-12-13T05:56:27.424Z,36.56
2022-12-13T05:57:27.400Z,37.85
2022-12-13T05:58:27.390Z,36.61
2022-12-13T05:59:28.407Z,37.69
2022-12-13T06:00:30.006Z,36.61
2022-12-13T06:01:27.360Z,37.69
2022-12-13T06:02:27.509Z,37.85
2022-12-13T06:03:27.455Z,35.64
2022-12-13T06:04:27.312Z,37.64
2022-12-13T06:05:27.300Z,37.85
2022-12-13T06:06:27.286Z,37.80
2022-12-13T06:07:27.287Z,37.85
2022-12-13T06:08:27.310Z,37.64
2022-12-13T06:09:27.245Z,36.56
2022-12-13T06:10:34.344Z,37.42
2022-12-13T06:11:31.143Z,37.91
2022-12-13T06:12:31.596Z,36.61
2022-12-13T06:13:32.465Z,37.69
2022-12-13T06:14:27.184Z,36.56
2022-12-13T06:15:27.448Z,36.67
2022-12-13T06:16:28.354Z,37.69
2022-12-13T06:17:27.145Z,37.91
2022-12-13T06:18:27.137Z,37.64
2022-12-13T06:19:27.135Z,37.80
2022-12-13T06:20:27.112Z,36.61
2022-12-13T06:21:27.102Z,36.50
2022-12-13T06:22:27.080Z,37.80
2022-12-13T06:23:27.071Z,37.69
2022-12-13T06:24:27.065Z,37.80
2022-12-13T06:25:31.237Z,36.56
2022-12-13T06:26:27.058Z,37.85
2022-12-13T06:27:27.038Z,36.56
2022-12-13T06:28:27.006Z,37.75
2022-12-13T06:29:26.998Z,36.72
2022-12-13T06:30:26.977Z,36.67
2022-12-13T06:31:26.971Z,36.67
2022-12-13T06:32:26.954Z,36.77
2022-12-13T06:33:26.946Z,36.56
2022-12-13T06:34:26.926Z,36.56
2022-12-13T06:35:28.288Z,36.56
2022-12-13T06:36:26.900Z,36.83
2022-12-13T06:37:26.887Z,36.56
2022-12-13T06:38:31.592Z,37.69
2022-12-13T06:39:26.860Z,36.56
2022-12-13T06:40:27.884Z,36.50
2022-12-13T06:41:31.996Z,37.85
2022-12-13T06:42:26.849Z,36.61
2022-12-13T06:43:26.809Z,37.69
2022-12-13T06:44:26.797Z,37.69
2022-12-13T06:45:26.789Z,36.56
2022-12-13T06:46:26.825Z,36.61
2022-12-13T06:47:32.094Z,37.80
2022-12-13T06:48:26.748Z,37.85
2022-12-13T06:49:26.739Z,36.61
2022-12-13T06:50:26.728Z,36.72
2022-12-13T06:51:32.911Z,36.61
2022-12-13T06:52:27.728Z,36.56
2022-12-13T06:53:26.686Z,36.72
2022-12-13T06:54:26.675Z,36.61
2022-12-13T06:55:26.656Z,37.75
2022-12-13T06:56:26.652Z,36.56
2022-12-13T06:57:26.633Z,36.56
2022-12-13T06:58:26.640Z,37.80
2022-12-13T06:59:26.610Z,36.56
2022-12-13T07:00:35.571Z,36.61
2022-12-13T07:01:27.684Z,36.61
2022-12-13T07:02:27.646Z,36.56
2022-12-13T07:03:26.603Z,37.75
2022-12-13T07:04:29.376Z,36.67
2022-12-13T07:05:26.530Z,36.67
2022-12-13T07:06:26.515Z,36.50
2022-12-13T07:07:26.507Z,36.72
2022-12-13T07:08:26.559Z,35.75
2022-12-13T07:09:26.480Z,36.67
2022-12-13T07:10:26.472Z,36.61
2022-12-13T07:11:26.455Z,36.72
2022-12-13T07:12:26.448Z,36.61
2022-12-13T07:13:26.432Z,36.61
2022-12-13T07:14:26.441Z,36.50
2022-12-13T07:15:26.512Z,36.56
2022-12-13T07:16:26.392Z,36.72
2022-12-13T07:17:32.799Z,36.50
2022-12-13T07:18:27.406Z,36.67
2022-12-13T07:19:26.353Z,36.67
2022-12-13T07:20:27.375Z,36.61
2022-12-13T07:21:26.324Z,36.61
2022-12-13T07:22:26.313Z,36.61
2022-12-13T07:23:26.294Z,36.61
2022-12-13T07:24:26.298Z,36.72
2022-12-13T07:25:27.782Z,36.67
2022-12-13T07:26:26.266Z,36.67
2022-12-13T07:27:26.240Z,36.61
2022-12-13T07:28:26.237Z,36.56
2022-12-13T07:29:26.212Z,36.50
2022-12-13T07:30:26.235Z,36.56
2022-12-13T07:31:26.753Z,36.67
2022-12-13T07:32:26.180Z,36.67
2022-12-13T07:33:26.163Z,36.72
2022-12-13T07:34:26.151Z,36.56
2022-12-13T07:35:26.139Z,36.67
2022-12-13T07:36:26.123Z,36.56
2022-12-13T07:37:29.401Z,37.91
2022-12-13T07:38:26.099Z,36.61
2022-12-13T07:39:26.096Z,36.61
2022-12-13T07:40:26.068Z,36.56
2022-12-13T07:41:26.206Z,36.67
2022-12-13T07:42:26.049Z,36.61
2022-12-13T07:43:26.040Z,36.56
2022-12-13T07:44:26.031Z,37.85
2022-12-13T07:45:26.004Z,36.61
2022-12-13T07:46:33.605Z,36.61
2022-12-13T07:47:27.027Z,36.67
2022-12-13T07:48:25.979Z,37.75
2022-12-13T07:49:25.975Z,37.69
2022-12-13T07:50:25.973Z,37.85
2022-12-13T07:51:25.940Z,36.56
2022-12-13T07:52:25.930Z,36.50
2022-12-13T07:53:25.917Z,37.75
2022-12-13T07:54:25.895Z,37.69
2022-12-13T07:55:33.536Z,36.61
2022-12-13T07:56:26.907Z,36.67
2022-12-13T07:57:25.862Z,37.91
2022-12-13T07:58:25.839Z,37.85
2022-12-13T07:59:28.880Z,36.67
2022-12-13T08:00:25.828Z,36.67
2022-12-13T08:01:25.863Z,36.50
2022-12-13T08:02:25.817Z,36.56
2022-12-13T08:03:26.604Z,36.56
2022-12-13T08:04:25.842Z,36.61
2022-12-13T08:05:27.410Z,36.61
2022-12-13T08:06:25.744Z,36.56
2022-12-13T08:07:25.736Z,35.59
2022-12-13T08:08:30.970Z,36.67
2022-12-13T08:09:26.742Z,36.67
2022-12-13T08:10:25.692Z,36.72
2022-12-13T08:11:25.674Z,36.56
2022-12-13T08:12:25.669Z,37.69
2022-12-13T08:13:25.653Z,36.61
2022-12-13T08:14:25.650Z,36.61
2022-12-13T08:15:25.629Z,36.67
2022-12-13T08:16:26.084Z,37.80
2022-12-13T08:17:25.599Z,37.80
2022-12-13T08:18:25.621Z,36.61
2022-12-13T08:19:25.576Z,37.75
2022-12-13T08:20:25.565Z,36.67
2022-12-13T08:21:52.512Z,36.56
2022-12-13T08:22:26.570Z,36.61
2022-12-13T08:23:25.529Z,36.67
2022-12-13T08:24:25.519Z,36.56
2022-12-13T08:25:25.502Z,36.72
2022-12-13T08:26:25.473Z,36.67
2022-12-13T08:27:25.475Z,36.56
2022-12-13T08:28:25.502Z,36.61
2022-12-13T08:29:34.156Z,36.56
2022-12-13T08:30:26.475Z,36.61
2022-12-13T08:31:25.530Z,36.67
2022-12-13T08:32:26.447Z,37.80
2022-12-13T08:33:25.401Z,36.67
2022-12-13T08:34:25.499Z,36.61
2022-12-13T08:35:29.012Z,36.56
2022-12-13T08:36:26.381Z,36.50
2022-12-13T08:37:25.340Z,36.56
2022-12-13T08:38:25.333Z,35.69
2022-12-13T08:39:25.313Z,36.72
2022-12-13T08:40:25.335Z,36.61
2022-12-13T08:41:25.289Z,36.61
2022-12-13T08:42:25.272Z,35.64
2022-12-13T08:43:25.482Z,36.56
2022-12-13T08:44:25.255Z,36.61
2022-12-13T08:45:25.239Z,36.56
2022-12-13T08:46:25.294Z,36.56
2022-12-13T08:47:26.450Z,36.72
2022-12-13T08:48:25.197Z,37.80
2022-12-13T08:49:25.257Z,36.50
2022-12-13T08:50:25.200Z,36.61
2022-12-13T08:51:29.532Z,36.67
2022-12-13T08:52:26.183Z,36.67
2022-12-13T08:53:28.678Z,36.67
2022-12-13T08:54:31.353Z,36.61
2022-12-13T08:55:32.184Z,36.61
2022-12-13T08:56:26.127Z,36.61
2022-12-13T08:57:25.090Z,37.91
2022-12-13T08:58:25.077Z,36.61
2022-12-13T08:59:25.055Z,36.56
2022-12-13T09:00:25.099Z,37.64
2022-12-13T09:01:25.038Z,36.67
2022-12-13T09:02:25.093Z,36.56
2022-12-13T09:03:25.011Z,36.56
2022-12-13T09:04:31.806Z,36.56
2022-12-13T09:05:32.322Z,36.50
2022-12-13T09:06:26.002Z,36.56
2022-12-13T09:07:24.947Z,37.85
2022-12-13T09:08:25.542Z,36.61
2022-12-13T09:09:24.930Z,36.56
2022-12-13T09:10:27.535Z,36.56
2022-12-13T09:11:34.709Z,36.72
2022-12-13T09:12:29.825Z,36.67
2022-12-13T09:13:32.461Z,36.72
2022-12-13T09:14:25.899Z,36.50
2022-12-13T09:15:25.949Z,36.56
2022-12-13T09:16:26.039Z,36.56
2022-12-13T09:17:25.441Z,36.67
2022-12-13T09:18:27.924Z,36.56
2022-12-13T09:19:26.922Z,37.85
2022-12-13T09:20:28.882Z,36.56
2022-12-13T09:21:31.521Z,36.67
2022-12-13T09:22:33.049Z,36.67
2022-12-13T09:23:26.031Z,36.61
2022-12-13T09:24:24.983Z,36.61
2022-12-13T09:25:24.727Z,36.56
2022-12-13T09:26:25.539Z,36.56
2022-12-13T09:27:27.847Z,36.56
2022-12-13T09:28:24.687Z,36.67
2022-12-13T09:29:24.667Z,36.67
2022-12-13T09:30:24.653Z,36.61
2022-12-13T09:31:25.769Z,36.61
2022-12-13T09:32:24.620Z,35.69
2022-12-13T09:33:30.255Z,35.64
2022-12-13T09:34:25.676Z,36.61
2022-12-13T09:35:24.592Z,36.56
2022-12-13T09:36:24.622Z,36.56
2022-12-13T09:37:24.563Z,36.67
2022-12-13T09:38:24.546Z,36.56
2022-12-13T09:39:24.543Z,36.56
2022-12-13T09:40:25.983Z,35.69
2022-12-13T09:41:29.230Z,36.67
2022-12-13T09:42:24.506Z,36.61
2022-12-13T09:43:32.201Z,35.59
2022-12-13T09:44:32.838Z,36.56
2022-12-13T09:45:31.975Z,36.56
2022-12-13T09:46:25.496Z,36.56
2022-12-13T09:47:24.726Z,36.56
2022-12-13T09:48:24.789Z,36.67
2022-12-13T09:49:24.562Z,36.56
2022-12-13T09:50:24.882Z,36.56
2022-12-13T09:51:28.347Z,36.61
2022-12-13T09:52:25.428Z,35.64
2022-12-13T09:53:24.370Z,36.67
2022-12-13T09:54:25.413Z,36.61
2022-12-13T09:55:24.330Z,36.56
2022-12-13T09:56:24.312Z,36.56
2022-12-13T09:57:31.187Z,36.56
2022-12-13T09:58:25.588Z,36.72
2022-12-13T09:59:24.296Z,36.67
2022-12-13T10:00:24.267Z,35.64
2022-12-13T10:01:24.321Z,36.56
2022-12-13T10:02:24.324Z,36.72
2022-12-13T10:03:24.594Z,35.69
2022-12-13T10:04:24.226Z,36.56
2022-12-13T10:05:34.568Z,36.61
2022-12-13T10:06:25.230Z,36.56
2022-12-13T10:07:24.183Z,36.67
2022-12-13T10:08:24.215Z,36.67
2022-12-13T10:09:24.160Z,36.61
2022-12-13T10:10:24.144Z,36.61
2022-12-13T10:11:31.689Z,36.67
2022-12-13T10:12:25.158Z,36.56
2022-12-13T10:13:24.452Z,36.61
2022-12-13T10:14:24.097Z,36.61
2022-12-13T10:15:24.084Z,36.67
2022-12-13T10:16:24.377Z,37.69
2022-12-13T10:17:24.060Z,36.61
2022-12-13T10:18:24.041Z,36.67
2022-12-13T10:19:29.470Z,36.50
2022-12-13T10:20:24.025Z,36.56
2022-12-13T10:21:24.018Z,36.61
2022-12-13T10:22:24.004Z,36.61
2022-12-13T10:23:38.497Z,36.61
2022-12-13T10:24:30.038Z,36.67
2022-12-13T10:25:25.000Z,36.67
2022-12-13T10:26:25.064Z,36.56
2022-12-13T10:27:23.923Z,37.80
2022-12-13T10:28:23.913Z,36.61
2022-12-13T10:29:23.904Z,35.64
2022-12-13T10:30:28.511Z,36.67
2022-12-13T10:31:23.897Z,36.61
2022-12-13T10:32:23.866Z,36.61
2022-12-13T10:33:24.523Z,36.56
2022-12-13T10:34:23.847Z,36.56
2022-12-13T10:35:23.818Z,36.61
2022-12-13T10:36:26.571Z,36.61
2022-12-13T10:37:23.800Z,36.56
2022-12-13T10:38:23.797Z,35.69
2022-12-13T10:39:24.819Z,36.67
2022-12-13T10:40:31.928Z,36.61
2022-12-13T10:41:24.782Z,36.56
2022-12-13T10:42:26.863Z,36.56
2022-12-13T10:43:24.978Z,36.67
2022-12-13T10:44:23.710Z,35.64
2022-12-13T10:45:24.184Z,35.69
2022-12-13T10:46:25.280Z,36.56
2022-12-13T10:47:23.671Z,36.67
2022-12-13T10:48:23.664Z,36.61
2022-12-13T10:49:23.654Z,36.72
2022-12-13T10:50:23.640Z,36.61
2022-12-13T10:51:23.626Z,36.61
2022-12-13T10:52:31.038Z,36.56
2022-12-13T10:53:25.036Z,35.69
2022-12-13T10:54:23.598Z,37.75
2022-12-13T10:55:24.170Z,36.56
2022-12-13T10:56:24.093Z,36.61
2022-12-13T10:57:23.541Z,36.61
2022-12-13T10:58:23.538Z,36.50
2022-12-13T10:59:23.524Z,36.61
2022-12-13T11:00:23.511Z,36.67
2022-12-13T11:01:23.578Z,36.56
2022-12-13T11:02:23.526Z,36.67
2022-12-13T11:03:23.795Z,36.61
2022-12-13T11:04:27.493Z,36.56
2022-12-13T11:05:23.578Z,36.61
2022-12-13T11:06:23.445Z,36.50
2022-12-13T11:07:23.428Z,36.67
2022-12-13T11:08:24.023Z,36.61
2022-12-13T11:09:23.639Z,36.61
2022-12-13T11:10:27.109Z,36.61
2022-12-13T11:11:23.375Z,36.61
2022-12-13T11:12:23.387Z,36.61
2022-12-13T11:13:23.745Z,36.67
2022-12-13T11:14:32.386Z,36.61
2022-12-13T11:15:24.353Z,36.61
2022-12-13T11:16:23.359Z,36.56
2022-12-13T11:17:23.290Z,36.50
2022-12-13T11:18:23.755Z,36.61
2022-12-13T11:19:23.381Z,36.61
2022-12-13T11:20:23.250Z,36.61
2022-12-13T11:21:23.239Z,35.64
2022-12-13T11:22:23.239Z,36.67
2022-12-13T11:23:23.220Z,36.67
2022-12-13T11:24:23.363Z,36.61
2022-12-13T11:25:23.193Z,36.56
2022-12-13T11:26:24.256Z,36.61
2022-12-13T11:27:23.164Z,36.50
2022-12-13T11:28:26.956Z,36.61
2022-12-13T11:29:23.140Z,36.67
2022-12-13T11:30:23.128Z,36.61
2022-12-13T11:31:23.149Z,35.64
2022-12-13T11:32:23.311Z,35.64
2022-12-13T11:33:23.077Z,36.56
2022-12-13T11:34:23.076Z,36.67
2022-12-13T11:35:23.064Z,36.67
2022-12-13T11:36:23.059Z,35.64
2022-12-13T11:37:23.040Z,35.69
2022-12-13T11:38:23.497Z,35.64
2022-12-13T11:39:23.007Z,36.56
2022-12-13T11:40:22.992Z,36.56
2022-12-13T11:41:32.316Z,36.61
2022-12-13T11:42:24.005Z,36.56
2022-12-13T11:43:22.950Z,36.72
2022-12-13T11:44:22.958Z,35.59
2022-12-13T11:45:23.679Z,36.61
2022-12-13T11:46:22.970Z,36.67
2022-12-13T11:47:22.904Z,37.69
2022-12-13T11:48:23.213Z,36.56
2022-12-13T11:49:22.874Z,36.67
2022-12-13T11:50:33.501Z,36.61
2022-12-13T11:51:23.879Z,36.61
2022-12-13T11:52:22.836Z,35.69
2022-12-13T11:53:23.224Z,36.61
2022-12-13T11:54:24.102Z,36.56
2022-12-13T11:55:22.797Z,36.67
2022-12-13T11:56:22.784Z,36.67
2022-12-13T11:57:22.764Z,36.67
2022-12-13T11:58:45.842Z,36.67
2022-12-13T11:59:26.962Z,36.56
2022-12-13T12:00:34.072Z,36.56
2022-12-13T12:01:23.750Z,36.67
2022-12-13T12:02:22.743Z,36.67
2022-12-13T12:03:22.766Z,36.56
2022-12-13T12:04:22.669Z,36.61
2022-12-13T12:05:22.673Z,37.80
2022-12-13T12:06:22.645Z,36.56
2022-12-13T12:07:32.839Z,36.61
2022-12-13T12:08:31.595Z,36.56
2022-12-13T12:09:23.646Z,36.56
2022-12-13T12:10:22.605Z,36.56
2022-12-13T12:11:22.585Z,36.72
2022-12-13T12:12:22.576Z,36.56
2022-12-13T12:13:22.559Z,36.50
2022-12-13T12:14:22.541Z,36.61
2022-12-13T12:15:26.827Z,35.64
2022-12-13T12:16:22.584Z,36.61
2022-12-13T12:17:22.499Z,36.67
2022-12-13T12:18:23.187Z,36.67
2022-12-13T12:19:22.482Z,36.77
2022-12-13T12:20:23.514Z,36.61
2022-12-13T12:21:22.455Z,36.61
2022-12-13T12:22:22.440Z,37.85
2022-12-13T12:23:22.425Z,35.69
2022-12-13T12:24:22.420Z,36.56
2022-12-13T12:25:22.402Z,35.75
2022-12-13T12:26:22.391Z,36.61
2022-12-13T12:27:23.163Z,36.61
2022-12-13T12:28:22.778Z,35.59
2022-12-13T12:29:22.353Z,36.67
2022-12-13T12:30:23.370Z,36.61
2022-12-13T12:31:22.357Z,36.61
2022-12-13T12:32:22.330Z,36.61
2022-12-13T12:33:22.305Z,35.64
2022-12-13T12:34:27.757Z,36.67
2022-12-13T12:35:22.287Z,36.61
2022-12-13T12:36:22.253Z,35.75
2022-12-13T12:37:22.250Z,37.75
2022-12-13T12:38:22.960Z,36.61
2022-12-13T12:39:26.618Z,36.61
2022-12-13T12:40:22.209Z,36.67
2022-12-13T12:41:22.187Z,36.56
2022-12-13T12:42:22.183Z,36.61
2022-12-13T12:43:22.164Z,36.61
2022-12-13T12:44:22.155Z,35.64
2022-12-13T12:45:54.542Z,36.56
2022-12-13T12:46:23.228Z,36.56
2022-12-13T12:49:23.162Z,35.69
2022-12-13T12:50:22.073Z,36.72
2022-12-13T12:51:22.066Z,36.77
2022-12-13T12:52:22.059Z,36.56
2022-12-13T12:53:22.035Z,35.64
2022-12-13T12:54:24.197Z,36.67